createdAt,value
2022-10-06T00:01:12.513Z,13.30
2022-10-06T00:03:40.992Z,13.20
2022-10-06T00:06:11.997Z,13.20
2022-10-06T00:08:42.772Z,13.00
2022-10-06T00:11:12.213Z,13.10
2022-10-06T00:13:40.776Z,13.20
2022-10-06T00:16:11.657Z,13.00
2022-10-06T00:18:39.729Z,13.00
2022-10-06T00:21:07.888Z,13.00
2022-10-06T00:23:36.169Z,13.00
2022-10-06T00:26:06.242Z,12.90
2022-10-06T00:28:34.814Z,12.90
2022-10-06T00:31:03.395Z,12.90
2022-10-06T00:33:31.446Z,12.90
2022-10-06T00:36:00.890Z,12.90
2022-10-06T00:38:29.925Z,12.80
2022-10-06T00:40:58.125Z,12.80
2022-10-06T00:43:45.468Z,12.80
2022-10-06T00:46:17.969Z,12.70
2022-10-06T00:48:50.674Z,12.70
2022-10-06T00:51:19.166Z,12.70
2022-10-06T00:53:47.640Z,12.70
2022-10-06T00:56:16.042Z,12.60
2022-10-06T00:58:45.374Z,12.60
2022-10-06T01:01:14.295Z,12.50
2022-10-06T01:03:48.381Z,12.60
2022-10-06T01:06:16.396Z,12.40
2022-10-06T01:08:44.446Z,12.30
2022-10-06T01:11:14.420Z,12.30
2022-10-06T01:13:45.458Z,12.40
2022-10-06T01:16:20.050Z,12.30
2022-10-06T01:18:49.037Z,12.30
2022-10-06T01:21:24.121Z,12.30
2022-10-06T01:23:53.820Z,12.30
2022-10-06T01:26:24.739Z,12.20
2022-10-06T01:28:53.471Z,12.20
2022-10-06T01:31:21.742Z,12.00
2022-10-06T01:33:53.300Z,12.00
2022-10-06T01:36:21.607Z,12.00
2022-10-06T01:38:49.726Z,12.00
2022-10-06T01:41:19.559Z,12.10
2022-10-06T01:43:47.639Z,12.00
2022-10-06T01:46:16.268Z,11.90
2022-10-06T01:48:44.312Z,11.80
2022-10-06T01:51:16.018Z,11.80
2022-10-06T01:53:44.371Z,11.80
2022-10-06T01:56:13.718Z,11.80
2022-10-06T01:58:43.292Z,11.70
2022-10-06T02:01:11.811Z,11.60
2022-10-06T02:03:41.222Z,11.60
2022-10-06T02:06:09.754Z,11.50
2022-10-06T02:08:37.831Z,11.40
2022-10-06T02:11:09.071Z,11.40
2022-10-06T02:13:37.782Z,11.40
2022-10-06T02:16:08.523Z,11.30
2022-10-06T02:18:37.013Z,11.20
2022-10-06T02:21:06.048Z,11.20
2022-10-06T02:23:34.430Z,11.20
2022-10-06T02:26:03.689Z,11.20
2022-10-06T02:28:32.884Z,11.10
2022-10-06T02:31:02.511Z,11.00
2022-10-06T02:33:32.460Z,11.00
2022-10-06T02:36:01.158Z,11.00
2022-10-06T02:38:30.774Z,11.00
2022-10-06T02:40:59.532Z,11.00
2022-10-06T02:43:28.927Z,10.80
2022-10-06T02:45:58.108Z,11.00
2022-10-06T02:48:27.039Z,11.00
2022-10-06T02:51:01.598Z,10.90
2022-10-06T02:53:30.287Z,10.80
2022-10-06T02:56:02.565Z,10.80
2022-10-06T02:58:31.779Z,10.80
2022-10-06T03:01:03.564Z,10.80
2022-10-06T03:03:32.063Z,10.70
2022-10-06T03:06:02.605Z,10.70
2022-10-06T03:08:31.027Z,10.70
2022-10-06T03:11:03.176Z,10.60
2022-10-06T03:13:31.829Z,10.70
2022-10-06T03:16:00.180Z,10.60
2022-10-06T03:18:31.555Z,10.50
2022-10-06T03:21:02.862Z,10.40
2022-10-06T03:23:30.995Z,10.40
2022-10-06T03:25:59.362Z,10.40
2022-10-06T03:28:28.554Z,10.40
2022-10-06T03:31:02.610Z,10.50
2022-10-06T03:33:31.608Z,10.50
2022-10-06T03:36:01.991Z,10.50
2022-10-06T03:38:32.569Z,10.40
2022-10-06T03:41:08.724Z,10.60
2022-10-06T03:43:37.769Z,10.50
2022-10-06T03:46:07.537Z,10.30
2022-10-06T03:48:36.616Z,10.30
2022-10-06T03:51:07.762Z,10.40
2022-10-06T03:53:36.705Z,10.30
2022-10-06T03:56:06.439Z,10.30
2022-10-06T03:58:36.001Z,10.30
2022-10-06T04:01:08.089Z,10.20
2022-10-06T04:03:36.389Z,10.30
2022-10-06T04:06:07.146Z,10.20
2022-10-06T04:08:36.241Z,10.30
2022-10-06T04:11:08.810Z,10.30
2022-10-06T04:13:37.227Z,10.20
2022-10-06T04:16:13.698Z,10.30
2022-10-06T04:18:44.021Z,10.40
2022-10-06T04:21:14.395Z,10.20
2022-10-06T04:23:42.672Z,10.20
2022-10-06T04:26:13.439Z,10.00
2022-10-06T04:28:44.182Z,10.00
2022-10-06T04:31:15.790Z,9.90
2022-10-06T04:33:45.874Z,9.90
2022-10-06T04:36:17.174Z,9.90
2022-10-06T04:38:45.296Z,9.90
2022-10-06T04:41:15.599Z,9.80
2022-10-06T04:43:45.537Z,9.70
2022-10-06T04:46:38.031Z,9.80
2022-10-06T04:49:02.316Z,9.60
2022-10-06T04:51:31.685Z,9.50
2022-10-06T04:53:59.683Z,9.50
2022-10-06T04:56:29.415Z,9.60
2022-10-06T04:58:58.098Z,9.70
2022-10-06T05:01:27.843Z,9.60
2022-10-06T05:03:57.125Z,9.60
2022-10-06T05:06:27.373Z,9.60
2022-10-06T05:08:58.522Z,9.60
2022-10-06T05:11:27.144Z,9.60
2022-10-06T05:13:56.926Z,9.70
2022-10-06T05:16:27.368Z,9.60
2022-10-06T05:18:55.431Z,9.50
2022-10-06T05:21:25.200Z,9.20
2022-10-06T05:23:53.409Z,9.00
2022-10-06T05:26:24.278Z,9.00
2022-10-06T05:28:52.437Z,9.00
2022-10-06T05:31:22.162Z,9.00
2022-10-06T05:33:50.650Z,8.80
2022-10-06T05:36:20.623Z,8.70
2022-10-06T05:38:49.201Z,8.80
2022-10-06T05:41:18.905Z,8.80
2022-10-06T05:43:49.061Z,8.80
2022-10-06T05:46:20.472Z,8.60
2022-10-06T05:48:49.152Z,8.80
2022-10-06T05:51:19.119Z,8.90
2022-10-06T05:53:48.565Z,9.20
2022-10-06T05:56:20.749Z,9.20
2022-10-06T05:58:53.132Z,9.10
2022-10-06T06:01:23.658Z,9.10
2022-10-06T06:03:53.253Z,9.20
2022-10-06T06:06:23.287Z,9.30
2022-10-06T06:08:54.821Z,9.40
2022-10-06T06:11:25.620Z,9.50
2022-10-06T06:13:57.963Z,9.30
2022-10-06T06:16:25.869Z,9.40
2022-10-06T06:18:54.043Z,9.70
2022-10-06T06:21:22.368Z,10.50
2022-10-06T06:23:50.908Z,11.70
2022-10-06T06:26:23.547Z,12.50
2022-10-06T06:28:52.652Z,13.40
2022-10-06T06:31:26.569Z,14.80
2022-10-06T06:33:56.873Z,15.30
2022-10-06T06:36:26.452Z,15.70
2022-10-06T06:38:55.716Z,16.50
2022-10-06T06:41:24.913Z,17.50
2022-10-06T06:43:53.861Z,17.80
2022-10-06T06:46:25.238Z,18.80
2022-10-06T06:48:53.953Z,18.30
2022-10-06T06:51:24.226Z,17.80
2022-10-06T06:53:52.990Z,18.90
2022-10-06T06:56:22.275Z,18.50
2022-10-06T06:58:50.588Z,19.70
2022-10-06T07:01:20.360Z,19.90
2022-10-06T07:03:58.668Z,18.70
2022-10-06T07:06:29.219Z,16.20
2022-10-06T07:08:58.744Z,17.10
2022-10-06T07:11:29.380Z,17.80
2022-10-06T07:13:59.493Z,18.70
2022-10-06T07:16:45.777Z,17.90
2022-10-06T07:19:42.221Z,19.00
2022-10-06T07:22:33.956Z,19.00
2022-10-06T07:25:11.696Z,19.50
2022-10-06T07:27:43.062Z,19.40
2022-10-06T07:30:13.149Z,19.20
2022-10-06T07:32:41.202Z,19.80
2022-10-06T07:35:10.982Z,18.20
2022-10-06T07:37:38.997Z,17.40
2022-10-06T07:40:09.149Z,18.60
2022-10-06T07:42:48.857Z,19.10
2022-10-06T07:45:36.495Z,18.70
2022-10-06T07:48:05.501Z,18.90
2022-10-06T07:50:34.983Z,19.70
2022-10-06T07:53:09.123Z,18.60
2022-10-06T07:55:39.979Z,18.90
2022-10-06T07:58:13.518Z,20.40
2022-10-06T08:00:41.808Z,20.20
2022-10-06T08:03:11.075Z,20.10
2022-10-06T08:05:40.567Z,20.80
2022-10-06T08:08:08.575Z,19.90
2022-10-06T08:10:36.581Z,20.80
2022-10-06T08:13:06.323Z,20.70
2022-10-06T08:15:34.390Z,19.40
2022-10-06T08:18:08.741Z,20.00
2022-10-06T08:20:42.014Z,21.30
2022-10-06T08:23:12.365Z,20.90
2022-10-06T08:25:42.628Z,20.20
2022-10-06T08:28:10.848Z,21.00
2022-10-06T08:30:39.112Z,19.70
2022-10-06T08:33:07.427Z,20.10
2022-10-06T08:35:36.126Z,20.70
2022-10-06T08:38:05.536Z,21.60
2022-10-06T08:40:34.033Z,21.30
2022-10-06T08:43:03.784Z,21.40
2022-10-06T08:45:38.633Z,21.10
2022-10-06T08:48:13.869Z,19.60
2022-10-06T08:50:54.461Z,21.70
2022-10-06T08:53:31.320Z,21.60
2022-10-06T08:56:05.538Z,21.50
2022-10-06T08:58:42.498Z,21.30
2022-10-06T09:01:18.679Z,22.20
2022-10-06T09:03:49.296Z,23.40
2022-10-06T09:06:32.551Z,22.90
2022-10-06T09:09:07.644Z,22.90
2022-10-06T09:11:52.794Z,22.90
2022-10-06T09:14:24.477Z,22.20
2022-10-06T09:17:00.740Z,22.70
2022-10-06T09:19:37.974Z,22.10
2022-10-06T09:22:08.029Z,23.50
2022-10-06T09:24:46.990Z,24.50
2022-10-06T09:27:20.082Z,23.50
2022-10-06T09:29:49.195Z,22.70
2022-10-06T09:32:18.156Z,22.40
2022-10-06T09:34:51.171Z,22.70
2022-10-06T09:37:19.816Z,23.60
2022-10-06T09:39:50.995Z,23.40
2022-10-06T09:42:22.397Z,23.70
2022-10-06T09:44:58.433Z,22.90
2022-10-06T09:47:45.909Z,23.10
2022-10-06T09:50:21.948Z,22.30
2022-10-06T09:53:16.286Z,22.10
2022-10-06T09:55:55.259Z,22.20
2022-10-06T09:58:29.604Z,22.90
2022-10-06T10:01:00.105Z,22.80
2022-10-06T10:03:51.418Z,23.50
2022-10-06T10:06:32.131Z,23.90
2022-10-06T10:09:27.191Z,23.10
2022-10-06T10:12:27.848Z,23.70
2022-10-06T10:14:58.966Z,23.00
2022-10-06T10:17:49.097Z,22.80
2022-10-06T10:20:28.957Z,23.60
2022-10-06T10:22:59.350Z,24.40
2022-10-06T10:25:51.798Z,24.80
2022-10-06T10:28:50.678Z,24.10
2022-10-06T10:31:25.825Z,24.00
2022-10-06T10:34:12.429Z,23.50
2022-10-06T10:36:56.741Z,21.90
2022-10-06T10:39:32.665Z,22.50
2022-10-06T10:42:03.605Z,22.70
2022-10-06T10:44:37.245Z,22.40
2022-10-06T10:47:16.009Z,22.60
2022-10-06T10:49:50.931Z,22.30
2022-10-06T10:52:22.247Z,22.80
2022-10-06T10:55:00.382Z,22.30
2022-10-06T10:57:36.031Z,22.20
2022-10-06T11:00:08.485Z,22.70
2022-10-06T11:02:38.351Z,21.60
2022-10-06T11:05:16.836Z,22.20
2022-10-06T11:07:49.930Z,22.80
2022-10-06T11:10:23.051Z,22.30
2022-10-06T11:13:05.244Z,23.40
2022-10-06T11:15:48.757Z,23.20
2022-10-06T11:18:27.626Z,22.80
2022-10-06T11:20:58.368Z,22.50
2022-10-06T11:23:38.001Z,22.90
2022-10-06T11:26:13.137Z,22.90
2022-10-06T11:28:45.755Z,23.30
2022-10-06T11:31:25.761Z,23.90
2022-10-06T11:33:55.516Z,23.00
2022-10-06T11:36:34.898Z,23.50
2022-10-06T11:39:14.979Z,23.20
2022-10-06T11:41:48.195Z,23.00
2022-10-06T11:44:23.245Z,23.60
2022-10-06T11:46:56.988Z,22.70
2022-10-06T11:49:51.900Z,22.20
2022-10-06T11:52:46.411Z,22.50
2022-10-06T11:55:23.951Z,22.00
2022-10-06T12:01:30.055Z,22.90
2022-10-06T12:04:21.962Z,22.50
2022-10-06T12:07:05.560Z,23.10
2022-10-06T12:09:52.707Z,23.40
2022-10-06T12:12:47.741Z,23.90
2022-10-06T12:19:08.237Z,22.40
2022-10-06T12:21:47.066Z,22.90
2022-10-06T12:24:36.854Z,23.40
2022-10-06T12:27:41.670Z,23.70
2022-10-06T12:30:22.477Z,23.50
2022-10-06T12:32:54.606Z,22.80
2022-10-06T12:35:34.057Z,22.80
2022-10-06T12:38:05.866Z,23.00
2022-10-06T12:40:54.590Z,22.50
2022-10-06T12:43:58.142Z,23.20
2022-10-06T12:46:38.098Z,21.60
2022-10-06T12:49:34.349Z,21.60
2022-10-06T12:52:17.173Z,22.30
2022-10-06T12:54:56.419Z,22.40
2022-10-06T12:57:28.522Z,22.40
2022-10-06T12:59:56.603Z,21.40
2022-10-06T13:02:27.935Z,20.70
2022-10-06T13:04:58.513Z,21.00
2022-10-06T13:07:28.840Z,21.20
2022-10-06T13:10:20.271Z,21.30
2022-10-06T13:12:52.183Z,20.20
2022-10-06T13:15:25.035Z,19.80
2022-10-06T13:17:55.781Z,19.70
2022-10-06T13:20:36.325Z,20.90
2022-10-06T13:23:21.191Z,22.20
2022-10-06T13:25:54.029Z,23.20
2022-10-06T13:28:47.072Z,22.40
2022-10-06T13:31:21.330Z,21.20
2022-10-06T13:33:52.721Z,19.70
2022-10-06T13:36:23.450Z,19.30
2022-10-06T13:38:53.301Z,19.90
2022-10-06T13:41:29.212Z,19.70
2022-10-06T13:44:01.068Z,20.30
2022-10-06T13:46:32.756Z,21.30
2022-10-06T13:49:03.805Z,21.90
2022-10-06T13:51:33.440Z,21.80
2022-10-06T13:54:05.206Z,22.30
2022-10-06T13:56:39.918Z,22.90
2022-10-06T13:59:34.466Z,22.90
2022-10-06T14:02:22.471Z,23.00
2022-10-06T14:05:26.765Z,23.10
2022-10-06T14:07:58.123Z,22.80
2022-10-06T14:10:31.629Z,20.90
2022-10-06T14:13:02.845Z,20.60
2022-10-06T14:15:35.383Z,21.40
2022-10-06T14:18:06.074Z,22.40
2022-10-06T14:20:55.791Z,22.10
2022-10-06T14:23:51.386Z,20.80
2022-10-06T14:26:24.226Z,20.90
2022-10-06T14:28:54.833Z,20.80
2022-10-06T14:31:25.044Z,21.00
2022-10-06T14:33:54.338Z,20.80
2022-10-06T14:36:24.072Z,21.10
2022-10-06T14:38:54.762Z,20.60
2022-10-06T14:41:27.561Z,21.10
2022-10-06T14:43:58.925Z,20.90
2022-10-06T14:46:27.324Z,20.50
2022-10-06T14:48:55.971Z,19.60
2022-10-06T14:51:26.078Z,19.50
2022-10-06T14:53:54.825Z,19.70
2022-10-06T14:56:23.936Z,19.60
2022-10-06T14:58:52.484Z,19.40
2022-10-06T15:01:25.302Z,19.60
2022-10-06T15:03:54.315Z,18.90
2022-10-06T15:06:40.028Z,18.80
2022-10-06T15:09:08.553Z,19.10
2022-10-06T15:11:37.556Z,19.40
2022-10-06T15:14:06.687Z,19.10
2022-10-06T15:16:40.530Z,19.10
2022-10-06T15:19:09.130Z,19.00
2022-10-06T15:21:39.755Z,18.90
2022-10-06T15:24:09.295Z,18.80
2022-10-06T15:26:55.309Z,19.00
2022-10-06T15:29:23.319Z,18.60
2022-10-06T15:31:54.777Z,18.80
2022-10-06T15:34:25.237Z,19.00
2022-10-06T15:36:54.446Z,18.80
2022-10-06T15:39:24.644Z,18.80
2022-10-06T15:41:53.391Z,18.60
2022-10-06T15:44:21.747Z,18.50
2022-10-06T15:46:52.779Z,18.40
2022-10-06T15:49:22.437Z,18.00
2022-10-06T15:51:52.370Z,18.00
2022-10-06T15:54:21.933Z,17.80
2022-10-06T15:56:51.023Z,18.00
2022-10-06T15:59:19.673Z,17.90
2022-10-06T16:01:48.163Z,17.70
2022-10-06T16:04:32.227Z,17.60
2022-10-06T16:07:00.585Z,17.70
2022-10-06T16:09:30.689Z,17.60
2022-10-06T16:12:00.047Z,17.50
2022-10-06T16:14:28.129Z,17.30
2022-10-06T16:16:59.807Z,17.30
2022-10-06T16:19:30.751Z,17.20
2022-10-06T16:21:59.821Z,17.00
2022-10-06T16:24:28.413Z,16.90
2022-10-06T16:26:58.035Z,16.80
2022-10-06T16:29:26.616Z,16.60
2022-10-06T16:31:54.798Z,16.60
2022-10-06T16:34:23.420Z,16.50
2022-10-06T16:36:52.845Z,16.40
2022-10-06T16:39:22.472Z,16.20
2022-10-06T16:41:51.619Z,16.20
2022-10-06T16:44:19.618Z,16.10
2022-10-06T16:46:47.805Z,16.00
2022-10-06T16:49:15.780Z,15.90
2022-10-06T16:51:46.682Z,15.70
2022-10-06T16:54:17.926Z,15.60
2022-10-06T16:56:47.683Z,15.50
2022-10-06T16:59:17.508Z,15.30
2022-10-06T17:01:46.435Z,15.10
2022-10-06T17:04:16.217Z,15.00
2022-10-06T17:06:45.727Z,14.80
2022-10-06T17:09:17.094Z,14.60
2022-10-06T17:11:47.916Z,14.40
2022-10-06T17:14:16.443Z,14.30
2022-10-06T17:16:47.639Z,14.10
2022-10-06T17:19:17.513Z,13.90
2022-10-06T17:21:47.984Z,13.70
2022-10-06T17:24:19.129Z,13.40
2022-10-06T17:26:49.052Z,13.20
2022-10-06T17:29:19.371Z,13.00
2022-10-06T17:31:49.235Z,12.90
2022-10-06T17:34:21.217Z,12.80
2022-10-06T17:36:51.618Z,12.80
2022-10-06T17:39:22.518Z,12.70
2022-10-06T17:41:52.511Z,12.50
2022-10-06T17:44:24.098Z,12.40
2022-10-06T17:46:54.029Z,12.30
2022-10-06T17:49:23.891Z,12.20
2022-10-06T17:51:53.695Z,12.20
2022-10-06T17:54:24.918Z,12.10
2022-10-06T17:56:54.842Z,12.10
2022-10-06T17:59:24.585Z,12.10
2022-10-06T18:01:56.291Z,12.00
2022-10-06T18:04:25.090Z,12.00
2022-10-06T18:06:54.548Z,11.90
2022-10-06T18:09:24.258Z,11.70
2022-10-06T18:11:55.945Z,11.70
2022-10-06T18:14:26.106Z,11.60
2022-10-06T18:16:57.767Z,11.50
2022-10-06T18:19:30.123Z,11.60
2022-10-06T18:22:00.155Z,11.60
2022-10-06T18:24:31.333Z,11.40
2022-10-06T18:27:01.456Z,11.30
2022-10-06T18:29:31.275Z,11.20
2022-10-06T18:32:26.961Z,11.20
2022-10-06T18:37:35.976Z,11.10
2022-10-06T18:40:08.692Z,11.10
2022-10-06T18:42:36.961Z,11.00
2022-10-06T18:45:23.608Z,11.10
2022-10-06T18:48:09.039Z,11.20
2022-10-06T18:50:37.066Z,11.10
2022-10-06T18:53:05.486Z,11.20
2022-10-06T18:55:35.226Z,11.20
2022-10-06T18:58:04.459Z,11.10
2022-10-06T19:00:32.458Z,11.20
2022-10-06T19:03:00.829Z,11.40
2022-10-06T19:05:28.927Z,11.50
2022-10-06T19:07:56.972Z,11.40
2022-10-06T19:10:24.959Z,11.10
2022-10-06T19:12:54.344Z,11.00
2022-10-06T19:15:22.344Z,10.90
2022-10-06T19:17:50.511Z,10.90
2022-10-06T19:20:19.106Z,11.10
2022-10-06T19:22:48.446Z,11.10
2022-10-06T19:25:18.779Z,11.10
2022-10-06T19:27:47.297Z,11.10
2022-10-06T19:30:16.800Z,11.00
2022-10-06T19:32:44.952Z,11.10
2022-10-06T19:35:13.237Z,11.00
2022-10-06T19:37:41.763Z,11.00
2022-10-06T19:40:11.431Z,11.00
2022-10-06T19:42:47.739Z,10.80
2022-10-06T19:45:18.209Z,10.50
2022-10-06T19:47:47.131Z,10.50
2022-10-06T19:50:16.331Z,10.40
2022-10-06T19:52:45.171Z,10.40
2022-10-06T19:55:13.404Z,10.40
2022-10-06T19:57:41.759Z,10.40
2022-10-06T20:00:11.254Z,10.30
2022-10-06T20:02:42.947Z,10.30
2022-10-06T20:05:11.879Z,10.30
2022-10-06T20:07:40.611Z,10.30
2022-10-06T20:10:09.668Z,10.20
2022-10-06T20:12:38.386Z,10.10
2022-10-06T20:15:07.301Z,10.00
2022-10-06T20:17:35.915Z,10.10
2022-10-06T20:20:05.913Z,10.30
2022-10-06T20:22:33.973Z,10.10
2022-10-06T20:25:02.479Z,10.10
2022-10-06T20:27:30.642Z,10.00
2022-10-06T20:29:58.997Z,10.00
2022-10-06T20:32:27.391Z,10.00
2022-10-06T20:34:55.365Z,9.80
2022-10-06T20:37:24.767Z,10.00
2022-10-06T20:40:10.149Z,10.00
2022-10-06T20:42:40.144Z,9.90
2022-10-06T20:45:08.962Z,9.70
2022-10-06T20:47:36.992Z,9.30
2022-10-06T20:50:05.509Z,9.50
2022-10-06T20:52:34.861Z,9.50
2022-10-06T20:55:02.952Z,9.60
2022-10-06T20:57:44.105Z,9.60
2022-10-06T21:00:14.302Z,9.60
2022-10-06T21:02:42.376Z,9.60
2022-10-06T21:05:10.599Z,9.50
2022-10-06T21:07:40.024Z,9.50
2022-10-06T21:10:09.172Z,9.30
2022-10-06T21:12:37.205Z,9.40
2022-10-06T21:15:05.662Z,9.50
2022-10-06T21:17:33.770Z,9.50
2022-10-06T21:20:01.747Z,9.40
2022-10-06T21:22:31.412Z,9.40
2022-10-06T21:25:00.739Z,9.30
2022-10-06T21:27:29.778Z,9.40
2022-10-06T21:29:57.802Z,9.30
2022-10-06T21:32:25.783Z,8.90
2022-10-06T21:34:56.373Z,8.90
2022-10-06T21:37:24.409Z,9.10
2022-10-06T21:39:52.444Z,9.30
2022-10-06T21:42:21.849Z,9.20
2022-10-06T21:44:49.822Z,9.00
2022-10-06T21:47:18.194Z,8.90
2022-10-06T21:49:46.264Z,8.80
2022-10-06T21:52:14.271Z,8.80
2022-10-06T21:54:42.282Z,9.40
2022-10-06T21:57:10.284Z,9.00
2022-10-06T21:59:39.636Z,9.20
2022-10-06T22:02:07.885Z,8.90
2022-10-06T22:04:35.946Z,9.00
2022-10-06T22:07:03.944Z,9.10
2022-10-06T22:09:31.920Z,8.90
2022-10-06T22:12:00.025Z,8.70
2022-10-06T22:14:28.090Z,8.60
2022-10-06T22:16:57.478Z,8.70
2022-10-06T22:19:25.500Z,8.70
2022-10-06T22:21:55.033Z,8.70
2022-10-06T22:24:23.788Z,8.80
2022-10-06T22:26:51.872Z,8.90
2022-10-06T22:29:21.300Z,8.90
2022-10-06T22:31:49.838Z,8.50
2022-10-06T22:34:21.376Z,8.60
2022-10-06T22:36:49.497Z,8.70
2022-10-06T22:39:17.952Z,8.80
2022-10-06T22:41:46.480Z,8.70
2022-10-06T22:44:14.504Z,8.30
2022-10-06T22:46:42.586Z,8.10
2022-10-06T22:49:10.944Z,8.30
2022-10-06T22:51:40.405Z,8.20
2022-10-06T22:54:08.387Z,8.40
2022-10-06T22:56:36.443Z,8.50
2022-10-06T22:59:04.656Z,8.20
2022-10-06T23:01:32.722Z,8.10
2022-10-06T23:04:00.744Z,8.40
2022-10-06T23:06:31.148Z,8.50
2022-10-06T23:09:00.965Z,8.30
2022-10-06T23:11:29.227Z,8.20
2022-10-06T23:13:57.422Z,8.30
2022-10-06T23:16:25.624Z,8.40
2022-10-06T23:18:54.956Z,8.50
2022-10-06T23:21:27.352Z,8.40
2022-10-06T23:23:57.066Z,8.50
2022-10-06T23:26:26.902Z,8.30
2022-10-06T23:28:56.448Z,8.10
2022-10-06T23:31:24.914Z,8.00
2022-10-06T23:33:53.047Z,8.10
2022-10-06T23:36:21.365Z,7.90
2022-10-06T23:38:49.495Z,8.10
2022-10-06T23:41:17.579Z,8.20
2022-10-06T23:43:47.062Z,8.20
2022-10-06T23:46:15.314Z,8.30
2022-10-06T23:48:43.498Z,7.90
2022-10-06T23:51:13.545Z,8.00
2022-10-06T23:53:42.900Z,8.20
2022-10-06T23:56:11.962Z,8.30
2022-10-06T23:58:41.633Z,8.20
